Time;durP1;ratioP1;P1;durP2;ratioP2;P2;SDS_P1;SDS_P2;PMS_P1;PMS_P2;Temp;Humidity;BMP_temperature;BMP_pressure;BME280_temperature;BME280_humidity;BME280_pressure;Samples;Min_cycle;Max_cycle;Signal;HPM_P1;HPM_P2
2021/12/24 00:01:56;;;;;;;23.80;12.00;;;;;;;0.33;80.00;94766.94;4949782;28;20573;-63
2021/12/24 00:04:22;;;;;;;24.30;12.17;;;;;;;0.40;79.37;94776.63;4948685;28;20213;-63
2021/12/24 00:06:52;;;;;;;21.93;12.37;;;;;;;0.61;78.01;94807.34;4949638;28;20243;-60
2021/12/24 00:09:25;;;;;;;21.97;11.63;;;;;;;0.63;78.18;94783.91;4949515;28;20284;-65
2021/12/24 00:11:56;;;;;;;22.97;11.83;;;;;;;0.62;78.34;94774.81;4949722;28;20220;-64
2021/12/24 00:14:24;;;;;;;24.90;12.80;;;;;;;0.62;77.54;94781.50;4948523;28;20657;-62
2021/12/24 00:16:53;;;;;;;21.73;11.33;;;;;;;0.56;77.32;94797.59;4949581;28;20208;-63
2021/12/24 00:22:19;;;;;;;24.83;12.87;;;;;;;0.72;76.18;94807.72;4950095;28;20212;-64
2021/12/24 00:35:40;;;;;;;19.43;10.47;;;;;;;0.22;80.87;94751.63;4952704;28;20251;-63
2021/12/24 00:38:10;;;;;;;24.23;11.57;;;;;;;0.48;79.73;94766.28;4952613;28;20213;-63
2021/12/24 00:40:43;;;;;;;23.27;11.60;;;;;;;0.69;77.97;94802.84;4951128;28;20241;-60
2021/12/24 00:43:09;;;;;;;24.60;12.27;;;;;;;0.65;77.08;94814.66;4952836;28;20177;-63
2021/12/24 00:45:39;;;;;;;26.50;12.87;;;;;;;0.62;77.38;94794.81;4951159;29;20235;-61
2021/12/24 00:48:07;;;;;;;25.47;12.83;;;;;;;0.66;77.19;94797.97;4952897;28;20195;-63
2021/12/24 00:50:49;;;;;;;20.87;11.83;;;;;;;0.49;77.90;94778.72;4952514;28;20235;-64
2021/12/24 00:56:00;;;;;;;28.07;12.73;;;;;;;0.52;77.67;94755.28;4952597;28;20210;-64
2021/12/24 00:58:26;;;;;;;28.10;12.90;;;;;;;0.36;78.83;94727.66;4952664;28;20266;-62
2021/12/24 01:00:51;;;;;;;23.73;12.67;;;;;;;0.26;79.41;94713.13;4952055;28;20237;-65
2021/12/24 01:03:17;;;;;;;22.40;12.60;;;;;;;-0.20;81.72;94666.81;4952446;29;20177;-62
2021/12/24 01:05:43;;;;;;;24.50;12.93;;;;;;;-0.13;81.09;94689.00;4952270;28;20201;-63
2021/12/24 01:08:10;;;;;;;25.67;12.63;;;;;;;-0.14;82.16;94672.38;4951876;28;20187;-65
2021/12/24 01:10:39;;;;;;;24.97;13.50;;;;;;;-0.24;80.78;94701.13;4952342;28;20213;-62
2021/12/24 01:13:06;;;;;;;21.70;11.10;;;;;;;-0.01;79.48;94720.94;4952420;28;20677;-63
2021/12/24 01:15:35;;;;;;;22.17;12.23;;;;;;;-0.06;77.76;94751.97;4952159;28;20675;-65
2021/12/24 01:18:31;;;;;;;19.73;10.87;;;;;;;-0.03;79.50;94711.88;4951054;28;20181;-63
2021/12/24 01:20:59;;;;;;;20.97;10.13;;;;;;;-0.34;81.42;94691.56;4951851;28;20228;-62
2021/12/24 01:25:55;;;;;;;20.57;11.67;;;;;;;0.10;79.05;94722.97;4952244;28;20583;-63
2021/12/24 01:28:44;;;;;;;22.30;11.77;;;;;;;0.17;79.56;94714.31;4952292;28;20173;-63
2021/12/24 01:45:23;;;;;;;17.40;10.10;;;;;;;0.31;79.29;94701.22;4951909;29;20243;-65
2021/12/24 01:47:52;;;;;;;21.73;12.27;;;;;;;0.26;79.30;94693.13;4951757;28;20243;-63
2021/12/24 01:50:18;;;;;;;26.77;12.27;;;;;;;0.18;79.34;94685.97;4950434;28;20201;-64
2021/12/24 01:52:45;;;;;;;21.60;11.60;;;;;;;0.22;79.58;94692.44;4941739;23;20229;-64
2021/12/24 01:55:11;;;;;;;21.13;12.17;;;;;;;0.26;79.69;94693.94;4932398;29;20185;-65
2021/12/24 01:57:38;;;;;;;25.07;12.10;;;;;;;0.31;80.16;94687.03;4932623;28;20177;-63
2021/12/24 02:00:07;;;;;;;21.00;11.73;;;;;;;0.39;80.41;94679.19;4932496;28;20181;-62
2021/12/24 02:02:33;;;;;;;22.67;11.77;;;;;;;0.51;79.47;94676.13;4932064;29;20293;-66
2021/12/24 02:04:58;;;;;;;20.90;10.43;;;;;;;0.68;77.12;94721.19;4932319;28;20272;-61
2021/12/24 02:07:24;;;;;;;22.87;11.73;;;;;;;0.53;78.39;94691.88;4932584;29;20521;-65
2021/12/24 02:09:50;;;;;;;23.30;11.10;;;;;;;0.56;78.43;94684.25;4932216;29;20182;-63
2021/12/24 02:12:16;;;;;;;20.83;10.93;;;;;;;0.48;78.96;94674.59;4932390;29;20259;-65
2021/12/24 02:14:47;;;;;;;22.20;10.70;;;;;;;0.66;77.55;94697.94;4931982;28;20185;-65
2021/12/24 02:30:41;;;;;;;21.97;12.17;;;;;;;-0.07;80.60;94618.78;4931837;29;20259;-64
2021/12/24 02:33:07;;;;;;;26.17;12.93;;;;;;;-0.01;81.49;94608.53;4931777;28;20659;-63
2021/12/24 02:35:33;;;;;;;28.83;13.00;;;;;;;-0.03;82.95;94586.97;4931778;29;20224;-62
2021/12/24 02:38:00;;;;;;;24.33;12.63;;;;;;;-0.16;83.35;94573.41;4930630;29;20288;-65
2021/12/24 02:40:27;;;;;;;24.33;13.73;;;;;;;-0.01;82.05;94598.53;4931903;28;20187;-65
2021/12/24 02:42:55;;;;;;;32.07;14.97;;;;;;;-0.20;84.50;94566.94;4931718;29;20186;-66
2021/12/24 02:45:22;;;;;;;29.63;15.13;;;;;;;-0.02;82.83;94581.91;4931881;28;20189;-62
2021/12/24 02:48:11;;;;;;;26.50;14.37;;;;;;;-0.16;83.75;94561.72;4931706;29;20267;-60
2021/12/24 02:56:08;;;;;;;28.73;15.10;;;;;;;-0.29;85.17;94545.69;4931554;29;20211;-59
2021/12/24 02:58:52;;;;;;;27.70;14.50;;;;;;;-0.18;83.08;94568.47;4931709;29;20185;-61
2021/12/24 03:01:21;;;;;;;31.57;14.77;;;;;;;-0.65;86.42;94537.34;4931634;29;20212;-61
2021/12/24 03:03:51;;;;;;;32.07;14.30;;;;;;;-0.47;84.54;94554.00;4929997;29;20294;-62
2021/12/24 03:06:18;;;;;;;30.37;16.33;;;;;;;-0.54;84.66;94547.66;4931326;28;20554;-62
2021/12/24 03:08:44;;;;;;;35.73;16.13;;;;;;;-0.40;83.67;94565.31;4931145;29;20184;-65
2021/12/24 03:11:11;;;;;;;27.93;14.17;;;;;;;-0.45;84.63;94554.75;4929741;28;20223;-63
2021/12/24 03:13:38;;;;;;;27.17;14.27;;;;;;;-0.57;85.63;94544.47;4931356;28;20686;-62
2021/12/24 03:16:04;;;;;;;28.20;14.43;;;;;;;-0.63;85.93;94534.78;4931237;29;20205;-63
2021/12/24 03:18:33;;;;;;;26.97;13.53;;;;;;;-0.33;83.70;94565.88;4931195;29;20280;-60
2021/12/24 03:21:07;;;;;;;26.00;15.10;;;;;;;-0.52;84.29;94543.41;4931346;29;20762;-64
2021/12/24 03:23:42;;;;;;;33.33;15.33;;;;;;;-0.53;83.59;94564.25;4931328;29;20239;-63
2021/12/24 03:26:11;;;;;;;28.53;14.07;;;;;;;-0.57;84.47;94537.81;4931373;29;20278;-64
2021/12/24 03:28:37;;;;;;;34.37;15.53;;;;;;;-0.50;83.92;94559.13;4931219;29;20184;-62
2021/12/24 03:31:05;;;;;;;32.33;15.53;;;;;;;-0.59;83.90;94553.72;4929791;28;20295;-63
2021/12/24 03:33:33;;;;;;;33.67;14.27;;;;;;;-0.70;85.08;94539.22;4931240;29;20648;-61
2021/12/24 03:35:59;;;;;;;28.20;14.47;;;;;;;-0.81;85.29;94541.38;4931134;29;20231;-63
2021/12/24 03:38:25;;;;;;;28.07;14.47;;;;;;;-0.86;87.36;94524.09;4930833;28;20286;-64
2021/12/24 03:40:50;;;;;;;25.00;13.53;;;;;;;-0.86;88.80;94508.31;4929717;29;20245;-62
2021/12/24 03:43:16;;;;;;;32.00;14.30;;;;;;;-0.67;85.94;94536.59;4990101;23;20303;-65
2021/12/24 03:45:55;;;;;;;30.63;13.60;;;;;;;-0.95;88.43;94521.97;4988584;28;20294;-63
2021/12/24 03:48:38;;;;;;;28.33;14.23;;;;;;;-0.65;87.34;94529.84;4988642;28;20196;-60
2021/12/24 03:51:23;;;;;;;30.50;14.30;;;;;;;-0.64;86.80;94543.94;4988429;28;20623;-66
2021/12/24 03:56:34;;;;;;;33.00;15.87;;;;;;;-0.51;84.06;94564.19;4988967;28;20712;-61
2021/12/24 03:59:00;;;;;;;31.63;14.03;;;;;;;-0.75;86.05;94513.66;4988448;28;20271;-62
2021/12/24 04:01:26;;;;;;;31.90;14.60;;;;;;;-0.77;87.82;94514.59;4988609;28;20245;-60
2021/12/24 04:03:52;;;;;;;29.07;14.37;;;;;;;-0.45;85.85;94534.78;4989253;28;20187;-63
2021/12/24 04:06:18;;;;;;;31.03;14.93;;;;;;;-0.49;86.82;94528.31;4991948;28;20684;-64
2021/12/24 04:08:45;;;;;;;29.10;15.60;;;;;;;-0.50;85.82;94541.66;4992038;28;20576;-62
2021/12/24 04:11:10;;;;;;;32.43;13.30;;;;;;;-0.30;84.10;94560.72;4991763;28;20215;-60
2021/12/24 04:13:37;;;;;;;29.57;14.93;;;;;;;-0.47;85.75;94510.75;4991588;28;20179;-63
2021/12/24 04:16:03;;;;;;;30.37;16.00;;;;;;;-0.68;87.08;94526.66;4991825;28;20218;-61
2021/12/24 04:26:28;;;;;;;26.37;14.30;;;;;;;-0.86;87.83;94509.13;4992141;28;20299;-63
2021/12/24 04:28:53;;;;;;;33.27;15.00;;;;;;;-0.60;86.52;94547.91;4991491;28;20208;-64
2021/12/24 04:31:25;;;;;;;30.67;15.50;;;;;;;-0.51;85.88;94529.25;4991514;28;20271;-67
2021/12/24 04:33:51;;;;;;;34.37;14.97;;;;;;;-0.69;86.49;94533.34;4990228;28;20236;-62
2021/12/24 05:03:11;;;;;;;33.40;16.67;;;;;;;-1.02;87.65;94487.41;4991657;28;20246;-60
2021/12/24 05:05:47;;;;;;;34.57;16.10;;;;;;;-0.49;86.69;94540.78;4990712;28;20263;-59
2021/12/24 05:08:19;;;;;;;34.67;16.13;;;;;;;-0.44;86.00;94548.03;4989847;28;20173;-63
2021/12/24 05:10:45;;;;;;;26.40;14.90;;;;;;;-0.69;88.34;94520.88;4990743;28;20290;-63
2021/12/24 05:13:12;;;;;;;33.37;16.07;;;;;;;-0.49;84.73;94552.44;4990857;28;20207;-65
2021/12/24 05:15:40;;;;;;;30.53;16.63;;;;;;;-0.57;85.60;94552.78;4990688;28;20215;-65
2021/12/24 05:23:17;;;;;;;29.63;16.07;;;;;;;-0.82;88.71;94511.47;4991360;28;20240;-64
2021/12/24 05:25:45;;;;;;;32.73;15.23;;;;;;;-0.47;87.90;94518.25;4990901;28;20237;-62
2021/12/24 05:28:11;;;;;;;28.53;16.00;;;;;;;-0.36;85.67;94564.31;4990789;28;20186;-62
2021/12/24 05:30:39;;;;;;;31.40;16.90;;;;;;;-0.37;84.22;94581.88;4990784;28;20637;-59
2021/12/24 05:33:14;;;;;;;29.93;14.67;;;;;;;-0.40;83.69;94567.81;4990826;28;20226;-63
2021/12/24 05:35:39;;;;;;;30.70;15.33;;;;;;;-0.23;83.96;94565.41;4991232;28;20692;-64
2021/12/24 05:38:13;;;;;;;34.83;16.07;;;;;;;-0.17;83.33;94586.78;4990682;28;20229;-62
2021/12/24 05:40:39;;;;;;;30.80;16.17;;;;;;;-0.04;80.62;94605.31;4990888;28;20570;-62
2021/12/24 05:43:04;;;;;;;30.40;15.17;;;;;;;-0.03;81.14;94597.78;4991451;28;20219;-65
2021/12/24 05:45:30;;;;;;;31.40;15.37;;;;;;;0.04;80.65;94597.50;4990604;28;20604;-63
2021/12/24 05:47:55;;;;;;;32.97;15.60;;;;;;;0.07;80.83;94604.84;4990962;28;20187;-62
2021/12/24 05:50:21;;;;;;;32.40;16.03;;;;;;;0.00;79.74;94606.84;4990501;28;20183;-63
2021/12/24 05:52:46;;;;;;;30.73;15.97;;;;;;;-0.05;80.35;94587.06;4990417;28;20207;-60
2021/12/24 05:55:12;;;;;;;29.13;14.40;;;;;;;0.04;79.03;94592.50;4990388;28;20312;-61
2021/12/24 05:57:38;;;;;;;27.33;14.30;;;;;;;-0.01;79.51;94566.06;4988910;28;20524;-62
2021/12/24 06:00:06;;;;;;;31.13;14.33;;;;;;;-0.13;80.01;94571.59;4990305;28;20191;-62
2021/12/24 06:02:33;;;;;;;31.20;14.50;;;;;;;-0.25;80.91;94537.19;4990627;28;20217;-62
2021/12/24 06:04:58;;;;;;;27.73;15.10;;;;;;;-0.43;81.12;94538.00;4990279;28;20179;-63
2021/12/24 06:07:23;;;;;;;32.70;14.13;;;;;;;-0.54;82.00;94527.69;4988814;28;20597;-62
2021/12/24 06:09:49;;;;;;;26.10;13.73;;;;;;;-0.38;81.59;94526.13;4990520;28;20190;-61
2021/12/24 06:12:14;;;;;;;25.70;13.33;;;;;;;-0.48;82.82;94504.13;4990398;28;20247;-60
2021/12/24 06:14:41;;;;;;;31.20;15.03;;;;;;;-0.41;82.97;94520.47;4990125;28;20279;-62
2021/12/24 06:17:14;;;;;;;29.83;13.43;;;;;;;-0.33;83.15;94524.25;4989864;28;20225;-60
2021/12/24 06:19:39;;;;;;;25.23;13.40;;;;;;;-0.04;82.33;94533.69;4988707;28;20278;-62
2021/12/24 06:22:05;;;;;;;23.93;13.20;;;;;;;0.17;80.60;94556.88;4990138;28;20328;-62
2021/12/24 06:24:30;;;;;;;27.37;13.93;;;;;;;0.23;79.84;94578.28;4990095;28;20190;-62
2021/12/24 06:26:56;;;;;;;27.87;13.70;;;;;;;0.28;81.04;94567.22;4987921;28;20574;-64
2021/12/24 06:29:21;;;;;;;23.53;13.30;;;;;;;0.47;78.39;94622.13;4990384;28;20190;-59
2021/12/24 06:31:48;;;;;;;27.13;11.93;;;;;;;0.52;76.43;94655.25;4990098;28;20219;-62
2021/12/24 06:34:13;;;;;;;32.23;13.27;;;;;;;0.19;79.59;94605.09;4989659;28;20187;-63
2021/12/24 06:36:42;;;;;;;23.07;11.40;;;;;;;0.43;78.04;94630.66;5039298;23;20244;-61
2021/12/24 06:39:08;;;;;;;25.40;12.90;;;;;;;0.53;88.84;94541.84;5070473;28;20652;-60
2021/12/24 06:41:34;;;;;;;24.27;12.70;;;;;;;0.15;84.12;94580.31;5071683;28;20204;-63
2021/12/24 06:44:00;;;;;;;22.70;11.93;;;;;;;0.36;82.32;94599.34;5071549;28;20184;-63
2021/12/24 06:46:26;;;;;;;23.13;12.03;;;;;;;0.64;78.29;94662.19;5071760;28;20207;-60
2021/12/24 06:48:56;;;;;;;30.30;12.10;;;;;;;0.63;77.22;94670.56;5070296;28;20180;-64
2021/12/24 06:51:26;;;;;;;25.83;11.57;;;;;;;0.51;78.85;94636.94;5071778;28;20251;-64
2021/12/24 06:53:52;;;;;;;28.37;11.20;;;;;;;0.67;76.67;94665.34;5071788;28;20184;-63
2021/12/24 06:56:17;;;;;;;24.50;9.93;;;;;;;0.74;77.36;94635.88;5071941;28;20233;-60
2021/12/24 06:58:43;;;;;;;23.67;10.60;;;;;;;0.87;75.15;94664.41;5071728;28;20180;-63
2021/12/24 07:01:09;;;;;;;21.47;10.53;;;;;;;0.76;75.27;94656.63;5071253;28;20557;-64
2021/12/24 07:03:34;;;;;;;18.73;9.83;;;;;;;0.80;74.65;94656.41;5070069;28;20192;-59
2021/12/24 07:06:00;;;;;;;19.33;9.70;;;;;;;1.00;74.80;94652.94;5071393;28;20205;-61
2021/12/24 07:08:26;;;;;;;27.57;8.70;;;;;;;1.77;100.00;94511.28;5071335;28;20208;-62
2021/12/24 07:10:52;;;;;;;19.27;10.67;;;;;;;2.01;97.54;94579.34;5071409;28;20260;-62
2021/12/24 07:13:18;;;;;;;19.70;10.20;;;;;;;1.96;78.61;94701.59;5070255;28;20210;-60
2021/12/24 07:15:44;;;;;;;26.13;10.80;;;;;;;1.81;77.22;94663.09;5070357;28;20209;-64
2021/12/24 07:18:09;;;;;;;22.00;9.60;;;;;;;1.95;72.54;94712.50;5070411;28;20709;-63
2021/12/24 07:20:35;;;;;;;19.77;10.23;;;;;;;2.03;94.12;94522.44;5069807;28;20209;-61
2021/12/24 07:23:01;;;;;;;13.17;7.97;;;;;;;2.16;73.87;94703.91;5071519;28;20177;-61
2021/12/24 07:25:26;;;;;;;20.40;8.93;;;;;;;1.95;73.16;94672.41;5070872;28;20526;-62
2021/12/24 07:27:52;;;;;;;16.93;9.33;;;;;;;2.01;71.53;94694.63;5071039;28;20172;-59
2021/12/24 07:30:18;;;;;;;19.73;10.07;;;;;;;1.59;76.35;94592.41;5071066;28;20250;-61
2021/12/24 07:32:44;;;;;;;18.93;10.17;;;;;;;1.28;75.44;94619.88;5071120;28;20240;-63
2021/12/24 07:35:10;;;;;;;29.47;11.00;;;;;;;1.45;75.75;94605.66;5070872;28;20276;-65
2021/12/24 07:37:37;;;;;;;31.50;11.97;;;;;;;1.24;76.88;94590.88;5072151;28;20619;-65
2021/12/24 07:40:04;;;;;;;26.13;12.37;;;;;;;1.37;76.55;94596.91;5075032;28;20181;-61
2021/12/24 07:42:30;;;;;;;26.93;12.20;;;;;;;1.43;76.18;94601.59;5074780;28;20296;-60
2021/12/24 07:44:55;;;;;;;24.73;12.63;;;;;;;1.60;75.69;94619.06;5073588;28;20242;-61
2021/12/24 07:47:28;;;;;;;31.10;13.53;;;;;;;1.72;74.42;94633.47;5075315;28;20219;-60
2021/12/24 07:50:03;;;;;;;39.07;14.03;;;;;;;1.74;74.83;94611.66;5074961;28;20251;-61
2021/12/24 07:52:30;;;;;;;29.73;15.13;;;;;;;1.57;73.88;94646.78;5075228;28;20249;-67
2021/12/24 07:54:55;;;;;;;21.33;13.07;;;;;;;1.47;75.00;94623.09;5073478;28;20637;-63
2021/12/24 07:57:22;;;;;;;31.13;13.33;;;;;;;1.57;75.82;94601.69;5075416;28;20215;-64
2021/12/24 07:59:48;;;;;;;24.67;13.60;;;;;;;1.81;75.48;94617.97;5074682;28;20180;-61
2021/12/24 08:02:33;;;;;;;24.63;13.77;;;;;;;2.09;72.73;94677.50;5075086;28;20554;-65
2021/12/24 08:04:59;;;;;;;27.90;13.37;;;;;;;2.25;72.34;94679.16;5075045;28;20177;-65
2021/12/24 08:07:24;;;;;;;23.30;12.97;;;;;;;2.47;71.86;94691.38;5075181;28;20659;-60
2021/12/24 08:09:51;;;;;;;24.43;12.00;;;;;;;2.76;69.70;94727.47;5074730;28;20184;-64
2021/12/24 08:12:17;;;;;;;25.63;11.13;;;;;;;3.04;68.59;94725.91;5075145;28;20274;-64
2021/12/24 08:14:44;;;;;;;20.23;10.40;;;;;;;3.10;67.92;94745.66;5074526;28;20248;-60
2021/12/24 08:17:10;;;;;;;21.80;11.17;;;;;;;3.42;65.36;94779.03;5075048;28;20205;-63
2021/12/24 08:19:36;;;;;;;24.80;12.60;;;;;;;3.55;64.89;94782.50;5074545;28;20181;-62
2021/12/24 08:22:03;;;;;;;32.13;13.30;;;;;;;3.40;66.84;94731.41;5074702;28;20213;-62
2021/12/24 08:24:30;;;;;;;29.87;12.53;;;;;;;3.55;65.90;94746.50;5074224;28;20184;-60
2021/12/24 08:26:56;;;;;;;19.03;10.83;;;;;;;3.67;64.21;94760.91;5073083;28;20201;-62
2021/12/24 08:29:22;;;;;;;25.27;10.83;;;;;;;3.91;64.36;94735.19;5074319;28;20207;-62
2021/12/24 08:31:50;;;;;;;21.67;10.63;;;;;;;4.35;64.68;94729.25;5073065;28;20319;-62
2021/12/24 08:34:17;;;;;;;19.63;11.37;;;;;;;4.64;61.96;94779.47;5074321;28;20180;-62
2021/12/24 08:36:44;;;;;;;18.53;10.23;;;;;;;4.88;61.67;94762.09;5074236;28;20224;-62
2021/12/24 08:39:09;;;;;;;19.60;9.60;;;;;;;5.13;60.38;94781.53;5074272;28;20260;-59
2021/12/24 08:41:35;;;;;;;20.50;10.60;;;;;;;5.26;60.46;94759.72;5074371;28;20338;-65
2021/12/24 08:44:01;;;;;;;17.83;9.67;;;;;;;5.63;59.08;94784.22;5074105;28;20184;-62
2021/12/24 08:46:27;;;;;;;19.57;10.63;;;;;;;5.71;59.33;94777.00;5072908;28;20240;-60
2021/12/24 08:48:52;;;;;;;21.50;10.33;;;;;;;6.14;57.50;94803.59;5073737;28;20575;-62
2021/12/24 08:51:17;;;;;;;18.80;9.67;;;;;;;6.21;56.70;94809.06;5073822;28;20229;-58
2021/12/24 08:53:43;;;;;;;23.23;12.00;;;;;;;6.11;56.10;94803.00;5073938;28;20192;-61
2021/12/24 08:56:08;;;;;;;19.87;11.70;;;;;;;6.12;57.11;94790.28;5072208;28;20682;-63
2021/12/24 08:58:34;;;;;;;17.53;11.17;;;;;;;6.52;55.89;94814.53;5074184;28;20183;-60
2021/12/24 09:01:00;;;;;;;14.37;8.73;;;;;;;6.77;55.07;94824.59;5073524;28;20209;-64
2021/12/24 09:03:25;;;;;;;16.10;8.93;;;;;;;7.06;54.73;94831.94;5073653;28;20180;-63
2021/12/24 09:05:51;;;;;;;17.20;8.27;;;;;;;7.25;54.38;94790.13;5072353;28;20311;-63
2021/12/24 09:08:17;;;;;;;18.03;10.27;;;;;;;7.45;53.82;94819.88;5073669;28;20629;-63
2021/12/24 09:10:43;;;;;;;14.97;9.00;;;;;;;7.77;52.02;94839.59;5072274;28;20311;-63
2021/12/24 09:13:08;;;;;;;13.33;8.90;;;;;;;8.08;52.06;94855.00;5073709;28;20311;-61
2021/12/24 09:15:34;;;;;;;16.70;8.87;;;;;;;7.84;52.06;94816.25;5073618;28;20212;-63
2021/12/24 09:18:02;;;;;;;18.13;9.50;;;;;;;8.00;50.77;94824.38;5073580;28;20565;-61
2021/12/24 09:20:35;;;;;;;16.57;9.80;;;;;;;8.05;52.06;94804.59;5073183;28;20200;-64
2021/12/24 09:23:02;;;;;;;16.87;9.37;;;;;;;8.37;49.86;94830.94;5073364;28;20165;-60
2021/12/24 09:25:28;;;;;;;16.07;9.97;;;;;;;8.19;50.76;94813.72;5020775;22;20232;-62
2021/12/24 09:27:55;;;;;;;17.27;9.03;;;;;;;8.42;50.09;94816.22;4990854;28;20180;-64
2021/12/24 09:30:21;;;;;;;20.47;9.73;;;;;;;8.40;49.51;94825.66;4991255;28;20198;-64
2021/12/24 09:32:46;;;;;;;18.93;10.17;;;;;;;8.49;49.94;94806.44;4990764;28;20684;-61
2021/12/24 09:35:12;;;;;;;17.57;10.50;;;;;;;8.75;49.90;94805.28;4989953;28;20187;-64
2021/12/24 09:37:39;;;;;;;18.40;9.33;;;;;;;8.65;50.01;94799.31;4991177;28;20183;-66
2021/12/24 09:40:08;;;;;;;20.03;9.87;;;;;;;9.05;48.73;94813.13;4989725;28;20191;-64
2021/12/24 09:42:34;;;;;;;20.60;11.20;;;;;;;9.38;48.39;94830.03;4990956;28;20731;-62
2021/12/24 09:45:01;;;;;;;16.37;9.00;;;;;;;9.52;46.93;94842.44;4991163;28;20187;-59
2021/12/24 09:47:26;;;;;;;13.23;9.30;;;;;;;9.61;46.30;94815.56;4990618;28;20200;-64
2021/12/24 09:49:52;;;;;;;19.70;10.53;;;;;;;9.42;47.85;94793.34;4991078;28;20187;-61
2021/12/24 09:52:20;;;;;;;18.87;10.13;;;;;;;9.34;48.56;94757.63;4989119;28;20752;-65
2021/12/24 09:54:47;;;;;;;16.67;9.07;;;;;;;9.30;47.69;94782.44;4989347;28;20622;-64
2021/12/24 09:57:13;;;;;;;14.97;10.23;;;;;;;9.46;47.47;94782.03;4990095;28;20192;-63
2021/12/24 09:59:38;;;;;;;16.17;10.47;;;;;;;9.73;47.30;94781.59;4990822;28;20184;-60
2021/12/24 10:02:14;;;;;;;14.87;9.63;;;;;;;10.05;46.11;94795.88;4987880;28;20200;-62
2021/12/24 10:04:41;;;;;;;15.43;8.87;;;;;;;10.26;46.09;94802.72;4989594;28;20252;-63
2021/12/24 10:07:12;;;;;;;21.40;9.80;;;;;;;10.41;46.42;94778.59;4990180;28;20693;-60
2021/12/24 10:09:43;;;;;;;18.23;9.83;;;;;;;10.56;45.06;94800.22;4990708;28;20637;-60
2021/12/24 10:12:14;;;;;;;18.10;10.20;;;;;;;10.82;44.61;94779.34;4990187;28;20235;-60
2021/12/24 10:14:41;;;;;;;17.70;9.90;;;;;;;11.01;43.96;94787.97;4990232;28;20252;-60
2021/12/24 10:17:34;;;;;;;17.87;10.83;;;;;;;11.12;43.25;94770.03;4990320;28;20279;-63
2021/12/24 10:20:10;;;;;;;21.27;11.30;;;;;;;10.74;43.44;94747.84;4992810;28;20740;-63
2021/12/24 10:22:51;;;;;;;15.07;11.13;;;;;;;10.83;44.04;94732.63;4990282;28;20168;-63
2021/12/24 10:25:24;;;;;;;15.43;10.40;;;;;;;10.93;43.91;94722.47;4990670;28;20649;-61
2021/12/24 10:27:49;;;;;;;18.53;10.67;;;;;;;10.88;43.82;94716.97;4990134;28;20164;-65
2021/12/24 10:30:23;;;;;;;13.90;9.57;;;;;;;10.79;44.17;94684.69;4988910;28;20191;-63
2021/12/24 10:32:50;;;;;;;20.53;11.60;;;;;;;10.62;45.21;94658.19;4989997;28;20210;-66
2021/12/24 10:35:18;;;;;;;17.10;10.27;;;;;;;10.39;44.62;94658.47;4990341;28;20187;-60
2021/12/24 10:37:44;;;;;;;17.73;9.77;;;;;;;9.99;46.56;94600.84;4990057;28;20180;-64
2021/12/24 10:40:10;;;;;;;19.83;10.07;;;;;;;10.35;45.25;94624.09;4990350;28;20177;-60
2021/12/24 10:42:39;;;;;;;17.97;9.70;;;;;;;9.86;46.99;94577.38;4990100;28;20572;-63
2021/12/24 10:45:16;;;;;;;17.77;9.67;;;;;;;10.03;46.37;94602.19;4990363;28;20252;-65
2021/12/24 10:47:42;;;;;;;11.93;8.63;;;;;;;9.99;46.98;94583.06;4988708;28;20176;-62
2021/12/24 10:55:23;;;;;;;13.00;8.30;;;;;;;10.83;45.00;94613.09;4990270;28;20184;-64
2021/12/24 10:57:51;;;;;;;11.87;8.30;;;;;;;11.08;44.68;94608.44;4989670;28;20180;-63
2021/12/24 11:00:46;;;;;;;13.33;8.50;;;;;;;10.73;45.28;94586.06;4989895;28;20199;-62
2021/12/24 11:03:19;;;;;;;12.47;7.77;;;;;;;10.65;44.84;94591.00;4989537;28;20259;-63
2021/12/24 11:05:48;;;;;;;14.63;8.73;;;;;;;10.98;44.92;94595.72;4988637;28;20207;-61
2021/12/24 11:08:19;;;;;;;11.13;8.03;;;;;;;11.25;44.29;94611.09;4989561;28;20187;-60
2021/12/24 11:10:51;;;;;;;11.47;7.70;;;;;;;11.27;44.53;94583.78;4989631;28;20202;-60
2021/12/24 11:13:28;;;;;;;17.27;8.83;;;;;;;11.48;44.59;94581.06;4989125;28;20238;-66
2021/12/24 11:15:55;;;;;;;12.53;7.93;;;;;;;11.82;43.85;94600.84;4989519;28;20191;-65
2021/12/24 11:18:29;;;;;;;15.20;9.27;;;;;;;12.07;43.16;94608.81;4989428;28;20172;-63
2021/12/24 11:21:06;;;;;;;14.23;8.00;;;;;;;12.31;43.39;94592.09;4989428;28;20199;-62
2021/12/24 11:23:41;;;;;;;14.70;8.37;;;;;;;12.16;43.54;94585.84;4989321;28;20676;-64
2021/12/24 11:26:15;;;;;;;14.30;8.00;;;;;;;12.24;43.15;94577.50;4989140;28;20299;-66
2021/12/24 11:28:42;;;;;;;13.70;8.40;;;;;;;12.08;43.26;94575.53;4989482;28;20210;-60
2021/12/24 11:31:27;;;;;;;11.67;8.17;;;;;;;12.23;42.87;94574.16;4989186;28;20268;-66
2021/12/24 11:33:53;;;;;;;13.90;7.60;;;;;;;12.31;43.36;94553.03;4989275;28;20199;-65
2021/12/24 11:36:22;;;;;;;15.37;8.13;;;;;;;12.06;43.30;94551.94;4989525;28;20257;-62
2021/12/24 11:38:50;;;;;;;12.13;7.63;;;;;;;12.56;42.80;94560.00;4988139;28;20271;-63
2021/12/24 11:41:18;;;;;;;11.27;7.63;;;;;;;12.76;43.13;94550.47;4989228;28;20238;-64
2021/12/24 11:43:47;;;;;;;13.60;8.27;;;;;;;12.75;42.51;94559.88;4989764;28;20608;-68
2021/12/24 11:46:15;;;;;;;15.27;9.30;;;;;;;12.99;41.79;94582.28;4987940;28;20526;-64
2021/12/24 11:48:42;;;;;;;12.30;8.40;;;;;;;13.04;42.22;94570.69;4989361;28;20184;-64
2021/12/24 11:51:20;;;;;;;19.50;8.53;;;;;;;13.27;40.96;94606.78;4989229;28;20199;-64
2021/12/24 11:53:46;;;;;;;13.90;8.40;;;;;;;13.30;41.12;94591.97;4987795;28;20203;-66
2021/12/24 11:56:15;;;;;;;12.43;8.40;;;;;;;13.08;41.15;94572.00;4989124;28;20195;-66
2021/12/24 11:59:06;;;;;;;18.03;8.97;;;;;;;12.99;41.46;94590.72;4989195;28;20210;-62
2021/12/24 12:01:40;;;;;;;15.40;9.37;;;;;;;13.20;41.40;94575.13;4993668;28;20347;-63
2021/12/24 12:04:18;;;;;;;10.23;7.53;;;;;;;12.84;42.21;94564.13;4989030;28;20215;-64
2021/12/24 12:06:43;;;;;;;13.57;8.37;;;;;;;12.75;42.54;94559.88;4988882;28;20226;-66
2021/12/24 12:09:11;;;;;;;14.90;7.77;;;;;;;13.04;41.57;94569.88;4989116;28;20219;-61
2021/12/24 12:11:40;;;;;;;13.73;8.30;;;;;;;12.75;42.67;94536.91;4987265;28;20643;-67
2021/12/24 12:14:07;;;;;;;13.57;7.83;;;;;;;12.81;42.82;94518.47;4988507;28;20266;-62
2021/12/24 12:16:39;;;;;;;13.07;7.80;;;;;;;12.60;42.93;94530.72;4988402;28;20208;-67
2021/12/24 12:19:28;;;;;;;13.00;8.33;;;;;;;12.87;42.18;94540.03;4988691;28;20182;-64
2021/12/24 12:25:03;;;;;;;10.53;6.60;;;;;;;13.23;42.29;94542.44;4990201;28;20199;-60
2021/12/24 12:27:55;;;;;;;8.90;6.37;;;;;;;13.48;41.47;94544.22;4992094;28;20210;-64
2021/12/24 12:30:36;;;;;;;17.27;6.80;;;;;;;12.47;43.31;94487.72;4992331;28;20295;-63
2021/12/24 12:33:31;;;;;;;10.80;6.43;;;;;;;13.07;42.41;94493.81;4991998;28;20600;-61
2021/12/24 12:36:01;;;;;;;9.70;6.10;;;;;;;12.74;43.52;94481.75;4992071;28;20202;-61
2021/12/24 12:38:38;;;;;;;6.90;5.13;;;;;;;12.77;43.37;94485.75;4990679;28;20188;-62
2021/12/24 12:41:34;;;;;;;8.53;4.93;;;;;;;12.67;43.51;94478.19;4990308;28;20279;-63
2021/12/24 12:44:08;;;;;;;7.87;4.33;;;;;;;12.76;44.07;94454.34;4991880;28;20645;-60
2021/12/24 12:46:36;;;;;;;4.93;3.37;;;;;;;12.32;45.49;94417.78;4992021;28;20635;-64
2021/12/24 12:49:08;;;;;;;2.93;1.80;;;;;;;11.71;47.07;94368.50;4990481;28;20275;-65
2021/12/24 12:51:57;;;;;;;6.00;1.70;;;;;;;11.41;48.13;94341.56;4991445;28;20211;-66
2021/12/24 12:54:30;;;;;;;2.67;1.77;;;;;;;11.15;49.29;94310.09;4991762;28;20496;-64
2021/12/24 12:57:19;;;;;;;2.20;1.70;;;;;;;11.17;49.29;94320.94;4990226;28;20321;-61
2021/12/24 13:00:12;;;;;;;3.10;1.90;;;;;;;11.05;50.33;94293.31;4991966;28;20188;-60
2021/12/24 13:02:56;;;;;;;2.23;1.50;;;;;;;10.62;51.18;94276.91;4991404;28;20176;-66
2021/12/24 13:05:26;;;;;;;4.27;1.43;;;;;;;10.59;51.27;94269.53;4992037;28;20195;-66
2021/12/24 13:07:53;;;;;;;6.43;3.23;;;;;;;10.59;51.66;94274.63;4991461;28;20229;-61
2021/12/24 13:10:19;;;;;;;8.80;5.87;;;;;;;10.71;52.69;94265.88;4990069;28;20260;-60
2021/12/24 13:12:45;;;;;;;8.00;5.17;;;;;;;10.91;59.02;94139.44;4991364;28;20212;-65
2021/12/24 13:15:16;;;;;;;10.23;5.73;;;;;;;10.95;60.19;94120.41;4991661;28;20214;-60
2021/12/24 13:17:46;;;;;;;9.00;5.50;;;;;;;11.26;50.34;94393.06;4991339;28;20178;-62